createdAt,value
2019-04-20T00:00:14.996Z,1008.1
2019-04-20T00:03:15.840Z,1008.0
2019-04-20T00:06:15.341Z,1008.1
2019-04-20T00:09:19.403Z,1008.1
2019-04-20T00:12:20.309Z,1008.1
2019-04-20T00:15:15.598Z,1008.0
2019-04-20T00:18:16.866Z,1008.0
2019-04-20T00:21:16.440Z,1008.0
2019-04-20T00:24:20.223Z,1008.0
2019-04-20T00:27:37.106Z,1008.0
2019-04-20T00:30:31.564Z,1008.0
2019-04-20T00:33:34.966Z,1008.0
2019-04-20T00:36:16.108Z,1007.9
2019-04-20T00:39:16.824Z,1007.9
2019-04-20T00:42:16.787Z,1007.8
2019-04-20T00:45:19.091Z,1007.8
2019-04-20T00:48:22.442Z,1007.8
2019-04-20T00:51:32.689Z,1007.8
2019-04-20T00:54:15.975Z,1007.8
2019-04-20T00:57:24.466Z,1007.7
2019-04-20T01:00:31.055Z,1007.8
2019-04-20T01:03:31.392Z,1007.8
2019-04-20T01:06:26.988Z,1007.8
2019-04-20T01:09:16.042Z,1007.8
2019-04-20T01:12:20.822Z,1007.8
2019-04-20T01:15:25.596Z,1007.8
2019-04-20T01:18:15.819Z,1007.8
2019-04-20T01:21:20.272Z,1007.8
2019-04-20T01:24:21.764Z,1007.8
2019-04-20T01:27:28.336Z,1007.8
2019-04-20T01:30:25.152Z,1007.9
2019-04-20T01:33:26.035Z,1007.9
2019-04-20T01:36:36.792Z,1007.9
2019-04-20T01:39:25.288Z,1007.9
2019-04-20T01:42:15.169Z,1007.9
2019-04-20T01:45:23.566Z,1007.9
2019-04-20T01:48:20.546Z,1007.9
2019-04-20T01:51:22.098Z,1007.9
2019-04-20T01:54:29.679Z,1007.9
2019-04-20T01:57:21.901Z,1007.9
2019-04-20T02:00:23.390Z,1008.0
2019-04-20T02:03:17.015Z,1008.0
2019-04-20T02:06:18.816Z,1007.9
2019-04-20T02:09:20.478Z,1008.0
2019-04-20T02:12:19.107Z,1007.9
2019-04-20T02:15:24.490Z,1007.9
2019-04-20T02:18:28.185Z,1007.9
2019-04-20T02:21:31.689Z,1007.9
2019-04-20T02:24:16.424Z,1007.9
2019-04-20T02:27:19.722Z,1007.9
2019-04-20T02:33:54.327Z,1008.0
2019-04-20T02:39:51.208Z,1007.9
2019-04-20T02:42:44.576Z,1007.9
2019-04-20T02:45:47.270Z,1008.0
2019-04-20T02:48:53.580Z,1007.9
2019-04-20T02:51:46.825Z,1007.9
2019-04-20T02:54:46.448Z,1007.9
2019-04-20T02:57:44.145Z,1007.9
2019-04-20T03:00:40.855Z,1007.9
2019-04-20T03:03:25.247Z,1007.8
2019-04-20T03:06:26.370Z,1007.8
2019-04-20T03:09:36.407Z,1007.8
2019-04-20T03:12:38.578Z,1007.8
2019-04-20T03:15:38.227Z,1007.8
2019-04-20T03:18:35.102Z,1007.8
2019-04-20T03:21:33.331Z,1007.8
2019-04-20T03:24:37.605Z,1007.8
2019-04-20T03:27:31.108Z,1007.8
2019-04-20T03:31:16.305Z,1007.8
2019-04-20T03:36:41.488Z,1007.8
2019-04-20T03:39:33.468Z,1007.9
2019-04-20T03:42:16.005Z,1007.9
2019-04-20T03:45:18.401Z,1007.9
2019-04-20T03:48:32.263Z,1007.9
2019-04-20T03:54:24.736Z,1008.0
2019-04-20T03:57:31.123Z,1008.0
2019-04-20T04:00:31.951Z,1008.0
2019-04-20T04:03:41.020Z,1008.0
2019-04-20T04:06:24.222Z,1007.9
2019-04-20T04:09:25.786Z,1008.0
2019-04-20T04:12:25.172Z,1008.0
2019-04-20T04:15:16.756Z,1008.0
2019-04-20T04:18:21.885Z,1008.0
2019-04-20T04:21:21.766Z,1008.0
2019-04-20T04:24:27.223Z,1008.0
2019-04-20T04:27:37.393Z,1008.0
2019-04-20T04:30:31.056Z,1008.0
2019-04-20T04:36:30.717Z,1008.1
2019-04-20T04:39:36.511Z,1008.1
2019-04-20T04:42:28.123Z,1008.1
2019-04-20T04:45:17.573Z,1008.1
2019-04-20T04:48:23.933Z,1008.1
2019-04-20T04:51:21.262Z,1008.2
2019-04-20T04:54:26.761Z,1008.2
2019-04-20T04:57:15.794Z,1008.1
2019-04-20T05:00:20.575Z,1008.2
2019-04-20T05:03:35.857Z,1008.2
2019-04-20T05:06:32.075Z,1008.2
2019-04-20T05:09:17.689Z,1008.2
2019-04-20T05:12:18.759Z,1008.2
2019-04-20T05:15:29.727Z,1008.2
2019-04-20T05:21:29.834Z,1008.3
2019-04-20T05:24:25.559Z,1008.3
2019-04-20T05:27:34.816Z,1008.3
2019-04-20T05:30:16.023Z,1008.3
2019-04-20T05:33:25.473Z,1008.3
2019-04-20T05:36:28.132Z,1008.3
2019-04-20T05:39:38.443Z,1008.4
2019-04-20T05:42:35.884Z,1008.4
2019-04-20T05:45:32.336Z,1008.4
2019-04-20T05:48:25.882Z,1008.4
2019-04-20T05:51:38.297Z,1008.5
2019-04-20T05:54:39.051Z,1008.5
2019-04-20T05:57:38.253Z,1008.5
2019-04-20T06:00:40.619Z,1008.6
2019-04-20T06:06:37.953Z,1008.5
2019-04-20T06:09:33.869Z,1008.6
2019-04-20T06:12:36.145Z,1008.7
2019-04-20T06:15:40.753Z,1008.6
2019-04-20T06:18:32.798Z,1008.7
2019-04-20T06:21:37.973Z,1008.7
2019-04-20T06:30:30.870Z,1008.7
2019-04-20T06:33:52.045Z,1008.7
2019-04-20T06:36:41.388Z,1008.7
2019-04-20T06:39:40.724Z,1008.7
2019-04-20T06:42:35.770Z,1008.8
2019-04-20T06:45:45.816Z,1008.8
2019-04-20T06:48:44.495Z,1008.8
2019-04-20T06:51:40.348Z,1008.8
2019-04-20T06:54:36.139Z,1008.9
2019-04-20T06:57:31.037Z,1008.9
2019-04-20T07:00:35.120Z,1008.9
2019-04-20T07:09:49.615Z,1008.9
2019-04-20T07:12:33.340Z,1008.9
2019-04-20T07:15:29.235Z,1008.9
2019-04-20T07:21:56.234Z,1008.9
2019-04-20T07:24:43.146Z,1008.9
2019-04-20T07:27:34.950Z,1008.9
2019-04-20T07:30:35.524Z,1009.0
2019-04-20T07:36:37.826Z,1008.9
2019-04-20T07:39:40.217Z,1009.0
2019-04-20T07:45:33.182Z,1008.9
2019-04-20T07:48:29.575Z,1008.9
2019-04-20T07:51:23.137Z,1008.9
2019-04-20T07:57:31.056Z,1008.9
2019-04-20T08:00:44.248Z,1008.9
2019-04-20T08:03:38.112Z,1008.9
2019-04-20T08:06:22.057Z,1008.8
2019-04-20T08:09:28.085Z,1008.9
2019-04-20T08:12:42.039Z,1008.8
2019-04-20T08:15:42.956Z,1008.8
2019-04-20T08:18:41.280Z,1008.8
2019-04-20T08:21:35.223Z,1008.8
2019-04-20T08:24:32.766Z,1008.8
2019-04-20T08:27:16.616Z,1008.8
2019-04-20T08:30:33.851Z,1008.8
2019-04-20T08:33:30.926Z,1008.8
2019-04-20T08:36:41.217Z,1008.7
2019-04-20T08:39:45.423Z,1008.8
2019-04-20T08:42:29.875Z,1008.8
2019-04-20T08:48:28.683Z,1008.7
2019-04-20T08:51:31.714Z,1008.7
2019-04-20T08:54:26.438Z,1008.8
2019-04-20T08:57:15.816Z,1008.8
2019-04-20T09:00:18.309Z,1008.6
2019-04-20T09:03:20.159Z,1008.7
2019-04-20T09:06:32.277Z,1008.6
2019-04-20T09:09:44.580Z,1008.7
2019-04-20T09:12:31.930Z,1008.6
2019-04-20T09:15:16.731Z,1008.6
2019-04-20T09:18:24.185Z,1008.7
2019-04-20T09:21:24.334Z,1008.7
2019-04-20T09:24:36.186Z,1008.6
2019-04-20T09:27:27.001Z,1008.6
2019-04-20T09:30:30.592Z,1008.6
2019-04-20T09:33:33.715Z,1008.6
2019-04-20T09:36:27.641Z,1008.6
2019-04-20T09:39:21.421Z,1008.6
2019-04-20T09:42:15.958Z,1008.6
2019-04-20T09:45:23.199Z,1008.6
2019-04-20T09:48:23.229Z,1008.5
2019-04-20T09:51:30.683Z,1008.6
2019-04-20T09:54:27.101Z,1008.5
2019-04-20T09:57:33.931Z,1008.5
2019-04-20T10:00:29.116Z,1008.5
2019-04-20T10:03:16.503Z,1008.4
2019-04-20T10:06:17.951Z,1008.4
2019-04-20T10:09:19.432Z,1008.4
2019-04-20T10:12:15.835Z,1008.4
2019-04-20T10:15:19.924Z,1008.4
2019-04-20T10:18:15.314Z,1008.4
2019-04-20T10:21:15.902Z,1008.4
2019-04-20T10:24:16.696Z,1008.4
2019-04-20T10:27:16.700Z,1008.4
2019-04-20T10:30:16.601Z,1008.3
2019-04-20T10:33:15.531Z,1008.3
2019-04-20T10:36:15.438Z,1008.3
2019-04-20T10:39:16.383Z,1008.3
2019-04-20T10:42:16.364Z,1008.2
2019-04-20T10:45:17.036Z,1008.2
2019-04-20T10:48:15.592Z,1008.2
2019-04-20T10:51:17.648Z,1008.2
2019-04-20T10:54:16.373Z,1008.2
2019-04-20T10:57:17.355Z,1008.2
2019-04-20T11:00:15.920Z,1008.2
2019-04-20T11:03:15.862Z,1008.2
2019-04-20T11:06:16.467Z,1008.2
2019-04-20T11:09:16.535Z,1008.1
2019-04-20T11:12:16.624Z,1008.2
2019-04-20T11:15:16.573Z,1008.1
2019-04-20T11:18:17.661Z,1008.0
2019-04-20T11:21:17.394Z,1008.1
2019-04-20T11:24:16.418Z,1008.0
2019-04-20T11:27:16.347Z,1008.0
2019-04-20T11:30:16.285Z,1007.9
2019-04-20T11:33:16.154Z,1007.9
2019-04-20T11:36:17.103Z,1007.7
2019-04-20T11:39:16.833Z,1007.8
2019-04-20T11:42:15.625Z,1007.8
2019-04-20T11:45:16.152Z,1007.6
2019-04-20T11:48:16.146Z,1007.6
2019-04-20T11:51:15.831Z,1007.7
2019-04-20T11:54:16.345Z,1007.6
2019-04-20T11:57:15.422Z,1007.6
2019-04-20T12:00:17.165Z,1007.4
2019-04-20T12:03:23.703Z,1007.4
2019-04-20T12:06:15.371Z,1007.5
2019-04-20T12:09:15.145Z,1007.4
2019-04-20T12:12:24.346Z,1007.4
2019-04-20T12:15:15.230Z,1007.4
2019-04-20T12:18:15.819Z,1007.3
2019-04-20T12:21:15.193Z,1007.3
2019-04-20T12:24:16.403Z,1007.3
2019-04-20T12:27:16.668Z,1007.2
2019-04-20T12:30:15.495Z,1007.2
2019-04-20T12:33:15.837Z,1007.3
2019-04-20T12:36:16.315Z,1007.1
2019-04-20T12:39:15.574Z,1007.1
2019-04-20T12:42:16.907Z,1007.1
2019-04-20T12:45:15.750Z,1007.1
2019-04-20T12:48:15.622Z,1007.1
2019-04-20T12:51:15.915Z,1007.0
2019-04-20T12:54:16.589Z,1007.0
2019-04-20T12:57:16.556Z,1006.9
2019-04-20T13:00:15.578Z,1006.9
2019-04-20T13:03:15.314Z,1006.9
2019-04-20T13:06:16.257Z,1006.9
2019-04-20T13:09:16.753Z,1006.8
2019-04-20T13:12:15.539Z,1006.7
2019-04-20T13:15:16.099Z,1006.7
2019-04-20T13:18:15.232Z,1006.6
2019-04-20T13:21:16.752Z,1006.6
2019-04-20T13:24:15.089Z,1006.5
2019-04-20T13:27:16.743Z,1006.6
2019-04-20T13:30:16.582Z,1006.4
2019-04-20T13:33:15.666Z,1006.4
2019-04-20T13:36:16.505Z,1006.3
2019-04-20T13:39:16.194Z,1006.3
2019-04-20T13:42:19.097Z,1006.3
2019-04-20T13:45:17.016Z,1006.3
2019-04-20T13:48:16.917Z,1006.2
2019-04-20T13:51:16.763Z,1006.3
2019-04-20T13:54:18.872Z,1006.1
2019-04-20T13:57:15.615Z,1006.1
2019-04-20T14:00:15.857Z,1006.0
2019-04-20T14:03:16.378Z,1006.0
2019-04-20T14:06:16.596Z,1006.0
2019-04-20T14:09:15.362Z,1006.0
2019-04-20T14:12:22.532Z,1005.9
2019-04-20T14:15:15.766Z,1005.9
2019-04-20T14:18:15.637Z,1005.9
2019-04-20T14:21:16.353Z,1005.8
2019-04-20T14:24:17.100Z,1005.8
2019-04-20T14:27:15.481Z,1005.7
2019-04-20T14:30:15.510Z,1005.7
2019-04-20T14:33:16.676Z,1005.7
2019-04-20T14:36:15.324Z,1005.6
2019-04-20T14:39:16.169Z,1005.6
2019-04-20T14:42:29.258Z,1005.6
2019-04-20T14:45:16.361Z,1005.6
2019-04-20T14:48:16.399Z,1005.6
2019-04-20T14:51:15.765Z,1005.5
2019-04-20T14:54:15.413Z,1005.5
2019-04-20T14:57:15.259Z,1005.4
2019-04-20T15:00:15.413Z,1005.3
2019-04-20T15:03:16.211Z,1005.3
2019-04-20T15:06:15.763Z,1005.3
2019-04-20T15:09:16.901Z,1005.2
2019-04-20T15:12:15.154Z,1005.2
2019-04-20T15:15:16.710Z,1005.2
2019-04-20T15:18:15.548Z,1005.2
2019-04-20T15:21:15.456Z,1005.1
2019-04-20T15:24:15.991Z,1005.1
2019-04-20T15:27:16.256Z,1005.2
2019-04-20T15:30:16.257Z,1005.2
2019-04-20T15:33:16.873Z,1005.1
2019-04-20T15:36:15.939Z,1005.1
2019-04-20T15:39:15.186Z,1005.0
2019-04-20T15:42:15.185Z,1005.0
2019-04-20T15:45:15.679Z,1005.0
2019-04-20T15:48:16.330Z,1004.9
2019-04-20T15:51:17.151Z,1004.9
2019-04-20T15:54:15.776Z,1005.0
2019-04-20T15:57:19.645Z,1004.9
2019-04-20T16:00:16.214Z,1004.9
2019-04-20T16:03:15.497Z,1004.9
2019-04-20T16:06:16.942Z,1004.9
2019-04-20T16:09:15.684Z,1004.8
2019-04-20T16:12:15.367Z,1004.9
2019-04-20T16:15:15.780Z,1004.8
2019-04-20T16:18:15.152Z,1004.8
2019-04-20T16:21:21.920Z,1004.8
2019-04-20T16:24:16.892Z,1004.7
2019-04-20T16:27:15.721Z,1004.8
2019-04-20T16:30:15.764Z,1004.7
2019-04-20T16:33:15.090Z,1004.7
2019-04-20T16:36:16.434Z,1004.7
2019-04-20T16:39:16.397Z,1004.6
2019-04-20T16:42:16.203Z,1004.5
2019-04-20T16:45:17.060Z,1004.6
2019-04-20T16:48:16.001Z,1004.5
2019-04-20T16:51:15.102Z,1004.5
2019-04-20T16:54:15.753Z,1004.5
2019-04-20T16:57:17.067Z,1004.5
2019-04-20T17:00:15.629Z,1004.5
2019-04-20T17:03:15.352Z,1004.5
2019-04-20T17:06:15.969Z,1004.4
2019-04-20T17:09:15.773Z,1004.4
2019-04-20T17:12:15.939Z,1004.3
2019-04-20T17:15:15.837Z,1004.3
2019-04-20T17:18:15.892Z,1004.3
2019-04-20T17:21:22.787Z,1004.4
2019-04-20T17:24:15.577Z,1004.3
2019-04-20T17:27:17.018Z,1004.4
2019-04-20T17:30:19.531Z,1004.3
2019-04-20T17:33:16.004Z,1004.3
2019-04-20T17:36:22.773Z,1004.3
2019-04-20T17:39:26.105Z,1004.3
2019-04-20T17:42:30.698Z,1004.2
2019-04-20T17:45:28.768Z,1004.3
2019-04-20T17:48:28.014Z,1004.3
2019-04-20T17:51:27.754Z,1004.3
2019-04-20T17:54:16.022Z,1004.3
2019-04-20T17:57:15.543Z,1004.3
2019-04-20T18:00:17.280Z,1004.3
2019-04-20T18:03:50.974Z,1004.3
2019-04-20T18:06:31.586Z,1004.3
2019-04-20T18:09:38.630Z,1004.3
2019-04-20T18:12:25.791Z,1004.3
2019-04-20T18:15:29.475Z,1004.3
2019-04-20T18:18:28.323Z,1004.3
2019-04-20T18:21:15.162Z,1004.3
2019-04-20T18:24:31.534Z,1004.3
2019-04-20T18:30:27.170Z,1004.3
2019-04-20T18:33:18.836Z,1004.2
2019-04-20T18:36:23.351Z,1004.3
2019-04-20T18:39:18.088Z,1004.3
2019-04-20T18:42:23.407Z,1004.3
2019-04-20T18:45:29.591Z,1004.3
2019-04-20T18:48:37.863Z,1004.3
2019-04-20T18:51:15.512Z,1004.4
2019-04-20T18:54:21.295Z,1004.4
2019-04-20T18:57:19.640Z,1004.4
2019-04-20T19:00:22.983Z,1004.4
2019-04-20T19:03:25.246Z,1004.4
2019-04-20T19:06:16.081Z,1004.4
2019-04-20T19:09:21.498Z,1004.4
2019-04-20T19:12:16.544Z,1004.5
2019-04-20T19:15:37.322Z,1004.4
2019-04-20T19:18:25.956Z,1004.4
2019-04-20T19:21:15.690Z,1004.4
2019-04-20T19:24:18.479Z,1004.4
2019-04-20T19:27:17.315Z,1004.5
2019-04-20T19:30:28.366Z,1004.4
2019-04-20T19:33:31.040Z,1004.5
2019-04-20T19:36:27.820Z,1004.5
2019-04-20T19:39:30.328Z,1004.5
2019-04-20T19:42:31.076Z,1004.6
2019-04-20T19:45:34.569Z,1004.6
2019-04-20T19:48:24.064Z,1004.6
2019-04-20T19:51:32.972Z,1004.6
2019-04-20T19:54:34.507Z,1004.6
2019-04-20T19:57:31.058Z,1004.7
2019-04-20T20:00:16.624Z,1004.7
2019-04-20T20:03:15.478Z,1004.7
2019-04-20T20:06:24.392Z,1004.7
2019-04-20T20:09:17.817Z,1004.7
2019-04-20T20:12:17.900Z,1004.7
2019-04-20T20:15:23.731Z,1004.8
2019-04-20T20:21:31.558Z,1004.9
2019-04-20T20:24:17.412Z,1004.8
2019-04-20T20:30:24.469Z,1004.9
2019-04-20T20:33:27.931Z,1004.8
2019-04-20T20:36:20.229Z,1004.9
2019-04-20T20:39:21.356Z,1004.8
2019-04-20T20:42:28.343Z,1004.9
2019-04-20T20:45:27.257Z,1004.9
2019-04-20T20:48:34.017Z,1004.8
2019-04-20T20:51:39.129Z,1004.9
2019-04-20T20:57:20.661Z,1004.8
2019-04-20T21:00:29.416Z,1004.8
2019-04-20T21:03:22.525Z,1004.8
2019-04-20T21:06:18.859Z,1004.8
2019-04-20T21:09:16.647Z,1004.8
2019-04-20T21:12:18.063Z,1004.8
2019-04-20T21:15:20.975Z,1004.8
2019-04-20T21:18:33.268Z,1004.9
2019-04-20T21:21:21.879Z,1004.8
2019-04-20T21:24:17.670Z,1004.9
2019-04-20T21:27:18.213Z,1004.9
2019-04-20T21:30:18.322Z,1004.9
2019-04-20T21:33:16.781Z,1004.9
2019-04-20T21:36:19.175Z,1004.9
2019-04-20T21:39:26.253Z,1004.9
2019-04-20T21:42:19.258Z,1004.9
2019-04-20T21:45:23.055Z,1005.0
2019-04-20T21:48:35.029Z,1005.0
2019-04-20T21:51:29.303Z,1005.0
2019-04-20T21:54:16.087Z,1004.9
2019-04-20T21:57:16.524Z,1004.9
2019-04-20T22:00:24.967Z,1004.9
2019-04-20T22:03:16.918Z,1004.9
2019-04-20T22:06:16.265Z,1004.9
2019-04-20T22:09:15.310Z,1004.9
2019-04-20T22:12:15.980Z,1005.0
2019-04-20T22:15:19.756Z,1004.9
2019-04-20T22:18:20.085Z,1004.9
2019-04-20T22:21:24.804Z,1005.0
2019-04-20T22:24:34.243Z,1005.0
2019-04-20T22:27:21.086Z,1005.0
2019-04-20T22:30:15.475Z,1004.9
2019-04-20T22:33:16.621Z,1004.9
2019-04-20T22:36:16.430Z,1004.9
2019-04-20T22:39:15.752Z,1004.9
2019-04-20T22:42:16.145Z,1004.9
2019-04-20T22:45:16.997Z,1004.9
2019-04-20T22:48:17.655Z,1004.9
2019-04-20T22:54:34.573Z,1004.8
2019-04-20T22:57:31.798Z,1004.8
2019-04-20T23:00:23.638Z,1004.8
2019-04-20T23:03:16.801Z,1004.8
2019-04-20T23:06:16.587Z,1004.8
2019-04-20T23:09:16.873Z,1004.8
2019-04-20T23:12:20.718Z,1004.8
2019-04-20T23:15:16.301Z,1004.7
2019-04-20T23:18:15.994Z,1004.8
2019-04-20T23:21:17.425Z,1004.7
2019-04-20T23:24:16.781Z,1004.7
2019-04-20T23:27:21.967Z,1004.6
2019-04-20T23:30:22.711Z,1004.6
2019-04-20T23:33:16.021Z,1004.6
2019-04-20T23:36:19.318Z,1004.6
2019-04-20T23:39:17.009Z,1004.6
2019-04-20T23:42:16.083Z,1004.6
2019-04-20T23:45:16.845Z,1004.5
2019-04-20T23:48:16.199Z,1004.5
2019-04-20T23:51:36.945Z,1004.5
2019-04-20T23:54:22.022Z,1004.5
2019-04-20T23:57:15.650Z,1004.4
